HAWK47 KNTU-KNTU
Flight info
| Callsign | HAWK47 |
|---|---|
| Flight time | 1h 12m |
| Altitude | 17000 |
| Route | CANOB KW36A HOBOH ZIBUT KW45A IMELL KW36A ZINEP ROWZO HUGEE HENIP WENID |
| Aircraft | F35/H-A/C |
Departure
| Time | 2026-04-18 12:46 |
|---|---|
| Airport | Oceana Naval Air Station (KNTU) |
Arrival
| Time | 2026-04-18 13:58 |
|---|---|
| Airport | Oceana Naval Air Station (KNTU) |
| Time | Latitude | Longitude | Altitude | Speed | Heading |
|---|---|---|---|---|---|
| 2026-04-18 12:36 | 36.81391 | -76.03438 | 31 ft | 0 kts | 45° |
| 2026-04-18 12:37 | 36.81392 | -76.03438 | 31 ft | 0 kts | 45° |
| 2026-04-18 12:39 | 36.81392 | -76.03437 | 31 ft | 0 kts | 45° |
| 2026-04-18 12:40 | 36.81403 | -76.03428 | 31 ft | 5 kts | 13° |
| 2026-04-18 12:40 | 36.81478 | -76.03499 | 31 ft | 19 kts | 314° |
| 2026-04-18 12:40 | 36.81572 | -76.03617 | 31 ft | 15 kts | 313° |
| 2026-04-18 12:40 | 36.81653 | -76.03567 | 31 ft | 17 kts | 44° |
| 2026-04-18 12:41 | 36.81756 | -76.03449 | 31 ft | 23 kts | 42° |
| 2026-04-18 12:41 | 36.81868 | -76.03326 | 31 ft | 18 kts | 41° |
| 2026-04-18 12:41 | 36.81977 | -76.03203 | 31 ft | 24 kts | 42° |
| 2026-04-18 12:41 | 36.82114 | -76.03047 | 31 ft | 29 kts | 42° |
| 2026-04-18 12:42 | 36.82277 | -76.02862 | 31 ft | 34 kts | 42° |
| 2026-04-18 12:42 | 36.82396 | -76.02727 | 31 ft | 18 kts | 41° |
| 2026-04-18 12:42 | 36.82505 | -76.02611 | 31 ft | 23 kts | 40° |
| 2026-04-18 12:42 | 36.82640 | -76.02460 | 31 ft | 29 kts | 41° |
| 2026-04-18 12:43 | 36.82759 | -76.02328 | 31 ft | 16 kts | 41° |
| 2026-04-18 12:43 | 36.82834 | -76.02252 | 31 ft | 10 kts | 9° |
| 2026-04-18 12:43 | 36.82870 | -76.02279 | 31 ft | 0 kts | 312° |
| 2026-04-18 12:43 | 36.82875 | -76.02286 | 31 ft | 1 kts | 312° |
| 2026-04-18 12:44 | 36.82880 | -76.02292 | 31 ft | 0 kts | 312° |
| 2026-04-18 12:44 | 36.82880 | -76.02293 | 31 ft | 0 kts | 312° |
| 2026-04-18 12:45 | 36.82887 | -76.02302 | 31 ft | 9 kts | 305° |
| 2026-04-18 12:45 | 36.82857 | -76.02394 | 31 ft | 0 kts | 224° |
| 2026-04-18 12:46 | 36.82498 | -76.02808 | 31 ft | 148 kts | 222° |
| 2026-04-18 12:46 | 36.81570 | -76.03862 | 464 ft | 187 kts | 222° |
| 2026-04-18 12:46 | 36.80590 | -76.04967 | 1075 ft | 202 kts | 222° |
| 2026-04-18 12:46 | 36.79496 | -76.06182 | 1963 ft | 223 kts | 221° |
| 2026-04-18 12:47 | 36.78305 | -76.07492 | 3020 ft | 229 kts | 221° |
| 2026-04-18 12:47 | 36.77174 | -76.08723 | 3915 ft | 207 kts | 222° |
| 2026-04-18 12:47 | 36.76022 | -76.09720 | 4601 ft | 199 kts | 207° |
| 2026-04-18 12:47 | 36.74787 | -76.10362 | 5188 ft | 189 kts | 201° |
| 2026-04-18 12:48 | 36.73540 | -76.10885 | 5806 ft | 188 kts | 200° |
| 2026-04-18 12:48 | 36.72299 | -76.11365 | 6416 ft | 188 kts | 199° |
| 2026-04-18 12:48 | 36.70911 | -76.11891 | 7164 ft | 229 kts | 199° |
| 2026-04-18 12:48 | 36.69281 | -76.12548 | 7842 ft | 262 kts | 200° |
| 2026-04-18 12:49 | 36.67550 | -76.13243 | 8238 ft | 253 kts | 199° |
| 2026-04-18 12:49 | 36.65903 | -76.13884 | 8650 ft | 243 kts | 199° |
| 2026-04-18 12:49 | 36.64271 | -76.14514 | 9091 ft | 243 kts | 199° |
| 2026-04-18 12:49 | 36.62706 | -76.15113 | 9480 ft | 241 kts | 199° |
| 2026-04-18 12:50 | 36.60984 | -76.15775 | 9970 ft | 277 kts | 199° |
| 2026-04-18 12:50 | 36.59020 | -76.16536 | 10044 ft | 310 kts | 199° |
| 2026-04-18 12:50 | 36.57082 | -76.17282 | 10038 ft | 283 kts | 199° |
| 2026-04-18 12:50 | 36.55245 | -76.17979 | 10047 ft | 267 kts | 199° |
| 2026-04-18 12:51 | 36.53499 | -76.18638 | 10055 ft | 258 kts | 199° |
| 2026-04-18 12:51 | 36.51801 | -76.19275 | 10060 ft | 252 kts | 199° |
| 2026-04-18 12:51 | 36.50158 | -76.19891 | 10063 ft | 249 kts | 199° |
| 2026-04-18 12:51 | 36.48506 | -76.20509 | 10065 ft | 247 kts | 199° |
| 2026-04-18 12:52 | 36.46844 | -76.21130 | 10067 ft | 246 kts | 199° |
| 2026-04-18 12:52 | 36.45227 | -76.21735 | 10067 ft | 245 kts | 199° |
| 2026-04-18 12:52 | 36.43598 | -76.22344 | 10068 ft | 245 kts | 199° |
| 2026-04-18 12:52 | 36.41972 | -76.22952 | 10067 ft | 245 kts | 199° |
| 2026-04-18 12:53 | 36.40338 | -76.23563 | 10069 ft | 244 kts | 199° |
| 2026-04-18 12:53 | 36.38711 | -76.24172 | 10072 ft | 244 kts | 199° |
| 2026-04-18 12:53 | 36.37082 | -76.24782 | 10073 ft | 244 kts | 199° |
| 2026-04-18 12:53 | 36.35453 | -76.25392 | 10073 ft | 244 kts | 199° |
| 2026-04-18 12:54 | 36.33826 | -76.26002 | 10072 ft | 245 kts | 199° |
| 2026-04-18 12:54 | 36.32199 | -76.26611 | 10074 ft | 245 kts | 199° |
| 2026-04-18 12:54 | 36.31100 | -76.27023 | 10074 ft | 245 kts | 199° |
| 2026-04-18 12:54 | 36.29579 | -76.27891 | 10060 ft | 239 kts | 224° |
| 2026-04-18 12:55 | 36.28672 | -76.29536 | 10069 ft | 229 kts | 258° |
| 2026-04-18 12:55 | 36.28675 | -76.31440 | 10071 ft | 222 kts | 292° |
| 2026-04-18 12:55 | 36.29556 | -76.32960 | 10072 ft | 219 kts | 326° |
| 2026-04-18 12:55 | 36.30991 | -76.33546 | 10075 ft | 222 kts | 0° |
| 2026-04-18 12:56 | 36.32452 | -76.32981 | 10073 ft | 227 kts | 34° |
| 2026-04-18 12:56 | 36.33574 | -76.31578 | 10090 ft | 233 kts | 49° |
| 2026-04-18 12:56 | 36.34537 | -76.29928 | 10085 ft | 237 kts | 53° |
| 2026-04-18 12:56 | 36.35444 | -76.28218 | 10077 ft | 239 kts | 56° |
| 2026-04-18 12:57 | 36.36247 | -76.26405 | 10075 ft | 241 kts | 60° |
| 2026-04-18 12:57 | 36.37068 | -76.24598 | 10075 ft | 241 kts | 56° |
| 2026-04-18 12:57 | 36.37950 | -76.22823 | 10076 ft | 241 kts | 55° |
| 2026-04-18 12:57 | 36.38883 | -76.21103 | 10074 ft | 240 kts | 51° |
| 2026-04-18 12:58 | 36.39600 | -76.19241 | 10064 ft | 243 kts | 79° |
| 2026-04-18 12:58 | 36.39676 | -76.17139 | 10083 ft | 245 kts | 88° |
| 2026-04-18 12:58 | 36.39989 | -76.15095 | 10071 ft | 239 kts | 60° |
| 2026-04-18 12:58 | 36.40863 | -76.13358 | 10080 ft | 238 kts | 50° |
| 2026-04-18 12:59 | 36.41889 | -76.11740 | 10076 ft | 239 kts | 49° |
| 2026-04-18 12:59 | 36.42662 | -76.09915 | 10063 ft | 243 kts | 78° |
| 2026-04-18 12:59 | 36.42550 | -76.07845 | 10074 ft | 246 kts | 111° |
| 2026-04-18 12:59 | 36.41567 | -76.06135 | 10081 ft | 247 kts | 141° |
| 2026-04-18 13:00 | 36.40140 | -76.04932 | 10079 ft | 249 kts | 151° |
| 2026-04-18 13:00 | 36.38609 | -76.03937 | 10077 ft | 250 kts | 154° |
| 2026-04-18 13:00 | 36.37029 | -76.02995 | 10076 ft | 251 kts | 155° |
| 2026-04-18 13:00 | 36.35445 | -76.02078 | 10075 ft | 252 kts | 156° |
| 2026-04-18 13:01 | 36.33794 | -76.01132 | 10098 ft | 274 kts | 156° |
| 2026-04-18 13:01 | 36.31999 | -76.00110 | 10088 ft | 291 kts | 156° |
| 2026-04-18 13:01 | 36.30135 | -75.99052 | 10076 ft | 290 kts | 156° |
| 2026-04-18 13:01 | 36.28389 | -75.98066 | 10051 ft | 262 kts | 158° |
| 2026-04-18 13:02 | 36.26761 | -75.97311 | 10048 ft | 240 kts | 163° |
| 2026-04-18 13:02 | 36.25215 | -75.96705 | 10050 ft | 226 kts | 164° |
| 2026-04-18 13:02 | 36.23750 | -75.96162 | 10054 ft | 216 kts | 165° |
| 2026-04-18 13:02 | 36.22323 | -75.95639 | 10058 ft | 210 kts | 165° |
| 2026-04-18 13:03 | 36.20946 | -75.95135 | 10063 ft | 204 kts | 165° |
| 2026-04-18 13:03 | 36.18161 | -75.94119 | 10055 ft | 226 kts | 165° |
| 2026-04-18 13:03 | 36.16549 | -75.93540 | 10108 ft | 260 kts | 165° |
| 2026-04-18 13:04 | 36.14700 | -75.92884 | 10108 ft | 293 kts | 165° |
| 2026-04-18 13:04 | 36.12648 | -75.92162 | 10098 ft | 321 kts | 165° |
| 2026-04-18 13:04 | 36.10430 | -75.91386 | 10088 ft | 338 kts | 166° |
| 2026-04-18 13:04 | 36.08113 | -75.90753 | 10083 ft | 345 kts | 171° |
| 2026-04-18 13:05 | 36.05726 | -75.90290 | 10078 ft | 349 kts | 173° |
| 2026-04-18 13:05 | 36.03314 | -75.89905 | 10076 ft | 351 kts | 174° |
| 2026-04-18 13:05 | 36.00878 | -75.89554 | 10079 ft | 353 kts | 175° |
| 2026-04-18 13:05 | 35.98937 | -75.89288 | 10077 ft | 354 kts | 175° |
| 2026-04-18 13:06 | 35.96651 | -75.88981 | 10077 ft | 354 kts | 175° |
| 2026-04-18 13:06 | 35.94263 | -75.88665 | 10077 ft | 355 kts | 175° |
| 2026-04-18 13:06 | 35.91741 | -75.88333 | 10077 ft | 355 kts | 175° |
| 2026-04-18 13:06 | 35.89288 | -75.88012 | 10078 ft | 355 kts | 175° |
| 2026-04-18 13:07 | 35.86829 | -75.87690 | 10077 ft | 355 kts | 175° |
| 2026-04-18 13:07 | 35.84368 | -75.87369 | 10076 ft | 355 kts | 175° |
| 2026-04-18 13:07 | 35.81912 | -75.87049 | 10075 ft | 355 kts | 175° |
| 2026-04-18 13:07 | 35.79452 | -75.86728 | 10072 ft | 355 kts | 175° |
| 2026-04-18 13:08 | 35.76994 | -75.86408 | 10070 ft | 355 kts | 175° |
| 2026-04-18 13:08 | 35.74533 | -75.86087 | 10068 ft | 355 kts | 175° |
| 2026-04-18 13:08 | 35.72073 | -75.85766 | 10066 ft | 355 kts | 175° |
| 2026-04-18 13:08 | 35.69615 | -75.85445 | 10065 ft | 355 kts | 175° |
| 2026-04-18 13:09 | 35.67153 | -75.85124 | 10064 ft | 355 kts | 175° |
| 2026-04-18 13:09 | 35.64699 | -75.84804 | 10065 ft | 355 kts | 175° |
| 2026-04-18 13:09 | 35.62241 | -75.84484 | 10067 ft | 355 kts | 175° |
| 2026-04-18 13:09 | 35.59782 | -75.84164 | 10070 ft | 355 kts | 175° |
| 2026-04-18 13:10 | 35.57320 | -75.83844 | 10072 ft | 355 kts | 175° |
| 2026-04-18 13:10 | 35.54860 | -75.83509 | 10076 ft | 356 kts | 172° |
| 2026-04-18 13:10 | 35.52472 | -75.82733 | 10095 ft | 356 kts | 165° |
| 2026-04-18 13:10 | 35.50050 | -75.82307 | 10086 ft | 351 kts | 186° |
| 2026-04-18 13:11 | 35.47711 | -75.83010 | 10084 ft | 345 kts | 209° |
| 2026-04-18 13:11 | 35.45815 | -75.84732 | 10085 ft | 338 kts | 232° |
| 2026-04-18 13:11 | 35.44648 | -75.87176 | 10083 ft | 332 kts | 255° |
| 2026-04-18 13:11 | 35.44382 | -75.89940 | 10083 ft | 327 kts | 278° |
| 2026-04-18 13:12 | 35.45030 | -75.92543 | 10087 ft | 324 kts | 300° |
| 2026-04-18 13:12 | 35.46296 | -75.94815 | 10084 ft | 325 kts | 313° |
| 2026-04-18 13:12 | 35.48081 | -75.96475 | 10083 ft | 325 kts | 336° |
| 2026-04-18 13:12 | 35.50274 | -75.97097 | 10083 ft | 326 kts | 359° |
| 2026-04-18 13:13 | 35.52542 | -75.96834 | 10089 ft | 330 kts | 9° |
| 2026-04-18 13:13 | 35.54785 | -75.96170 | 10086 ft | 333 kts | 17° |
| 2026-04-18 13:13 | 35.56920 | -75.95046 | 10088 ft | 336 kts | 25° |
| 2026-04-18 13:13 | 35.58965 | -75.93637 | 10085 ft | 338 kts | 29° |
| 2026-04-18 13:14 | 35.60964 | -75.92099 | 10080 ft | 339 kts | 31° |
| 2026-04-18 13:14 | 35.62941 | -75.90505 | 10070 ft | 340 kts | 31° |
| 2026-04-18 13:14 | 35.64904 | -75.88888 | 10066 ft | 340 kts | 32° |
| 2026-04-18 13:14 | 35.66867 | -75.87254 | 10057 ft | 341 kts | 32° |
| 2026-04-18 13:15 | 35.68831 | -75.85614 | 10055 ft | 341 kts | 32° |
| 2026-04-18 13:15 | 35.70790 | -75.83974 | 10054 ft | 341 kts | 32° |
| 2026-04-18 13:15 | 35.72751 | -75.82332 | 10057 ft | 342 kts | 32° |
| 2026-04-18 13:15 | 35.74698 | -75.80700 | 10059 ft | 341 kts | 32° |
| 2026-04-18 13:16 | 35.76674 | -75.79044 | 10062 ft | 341 kts | 32° |
| 2026-04-18 13:16 | 35.78639 | -75.77398 | 10066 ft | 341 kts | 32° |
| 2026-04-18 13:16 | 35.80607 | -75.75766 | 10070 ft | 341 kts | 30° |
| 2026-04-18 13:16 | 35.82657 | -75.74313 | 10075 ft | 340 kts | 26° |
| 2026-04-18 13:17 | 35.84754 | -75.72984 | 10078 ft | 339 kts | 24° |
| 2026-04-18 13:17 | 35.86874 | -75.71697 | 10080 ft | 339 kts | 24° |
| 2026-04-18 13:17 | 35.88995 | -75.70418 | 10082 ft | 339 kts | 25° |
| 2026-04-18 13:17 | 35.90981 | -75.68854 | 10087 ft | 341 kts | 35° |
| 2026-04-18 13:18 | 35.92812 | -75.66977 | 10085 ft | 342 kts | 39° |
| 2026-04-18 13:18 | 35.94561 | -75.64979 | 10082 ft | 343 kts | 41° |
| 2026-04-18 13:18 | 35.96273 | -75.62932 | 10077 ft | 343 kts | 42° |
| 2026-04-18 13:18 | 35.97965 | -75.60865 | 10072 ft | 343 kts | 43° |
| 2026-04-18 13:19 | 35.99659 | -75.58777 | 10069 ft | 343 kts | 43° |
| 2026-04-18 13:19 | 36.01343 | -75.56692 | 10069 ft | 343 kts | 43° |
| 2026-04-18 13:19 | 36.03027 | -75.54603 | 10065 ft | 343 kts | 43° |
| 2026-04-18 13:19 | 36.04707 | -75.52516 | 10064 ft | 343 kts | 43° |
| 2026-04-18 13:20 | 36.06393 | -75.50418 | 10064 ft | 343 kts | 43° |
| 2026-04-18 13:20 | 36.08066 | -75.48334 | 10063 ft | 343 kts | 43° |
| 2026-04-18 13:20 | 36.09756 | -75.46229 | 10063 ft | 343 kts | 43° |
| 2026-04-18 13:20 | 36.09910 | -75.46037 | 10064 ft | 343 kts | 43° |
| 2026-04-18 13:21 | 36.10896 | -75.44872 | 10061 ft | 342 kts | 37° |
| 2026-04-18 13:21 | 36.12937 | -75.43472 | 10063 ft | 335 kts | 14° |
| 2026-04-18 13:21 | 36.15220 | -75.43184 | 10063 ft | 329 kts | 351° |
| 2026-04-18 13:21 | 36.17432 | -75.43837 | 10075 ft | 328 kts | 342° |
| 2026-04-18 13:22 | 36.19615 | -75.44725 | 10068 ft | 330 kts | 340° |
| 2026-04-18 13:22 | 36.21768 | -75.45686 | 10043 ft | 331 kts | 340° |
| 2026-04-18 13:22 | 36.23928 | -75.46687 | 10013 ft | 331 kts | 340° |
| 2026-04-18 13:22 | 36.26082 | -75.47699 | 10006 ft | 331 kts | 340° |
| 2026-04-18 13:23 | 36.28231 | -75.48716 | 10004 ft | 331 kts | 339° |
| 2026-04-18 13:23 | 36.30378 | -75.49731 | 10003 ft | 331 kts | 341° |
| 2026-04-18 13:23 | 36.32609 | -75.50321 | 10011 ft | 329 kts | 357° |
| 2026-04-18 13:23 | 36.34901 | -75.50263 | 10008 ft | 329 kts | 5° |
| 2026-04-18 13:24 | 36.37168 | -75.49872 | 10001 ft | 329 kts | 15° |
| 2026-04-18 13:24 | 36.39296 | -75.48853 | 10008 ft | 329 kts | 26° |
| 2026-04-18 13:24 | 36.41301 | -75.47461 | 10006 ft | 330 kts | 31° |
| 2026-04-18 13:24 | 36.43238 | -75.45909 | 10004 ft | 331 kts | 33° |
| 2026-04-18 13:25 | 36.45126 | -75.44287 | 10003 ft | 331 kts | 34° |
| 2026-04-18 13:25 | 36.46997 | -75.42613 | 10007 ft | 331 kts | 35° |
| 2026-04-18 13:25 | 36.48852 | -75.40906 | 10004 ft | 332 kts | 36° |
| 2026-04-18 13:25 | 36.50687 | -75.39175 | 10003 ft | 332 kts | 37° |
| 2026-04-18 13:26 | 36.52516 | -75.37411 | 10003 ft | 332 kts | 37° |
| 2026-04-18 13:26 | 36.54320 | -75.35632 | 10003 ft | 332 kts | 38° |
| 2026-04-18 13:26 | 36.56120 | -75.33817 | 10003 ft | 332 kts | 38° |
| 2026-04-18 13:26 | 36.57892 | -75.31990 | 10003 ft | 332 kts | 39° |
| 2026-04-18 13:27 | 36.59660 | -75.30125 | 10003 ft | 332 kts | 40° |
| 2026-04-18 13:27 | 36.61402 | -75.28242 | 10003 ft | 332 kts | 40° |
| 2026-04-18 13:27 | 36.63129 | -75.26331 | 10003 ft | 332 kts | 41° |
| 2026-04-18 13:27 | 36.64837 | -75.24392 | 10003 ft | 332 kts | 42° |
| 2026-04-18 13:28 | 36.66526 | -75.22426 | 10003 ft | 332 kts | 43° |
| 2026-04-18 13:28 | 36.68196 | -75.20429 | 10003 ft | 332 kts | 43° |
| 2026-04-18 13:28 | 36.69839 | -75.18408 | 10003 ft | 333 kts | 44° |
| 2026-04-18 13:28 | 36.71466 | -75.16351 | 10003 ft | 333 kts | 45° |
| 2026-04-18 13:29 | 36.73061 | -75.14273 | 10003 ft | 333 kts | 46° |
| 2026-04-18 13:29 | 36.74617 | -75.12183 | 10003 ft | 333 kts | 46° |
| 2026-04-18 13:29 | 36.76182 | -75.10011 | 10003 ft | 333 kts | 47° |
| 2026-04-18 13:29 | 36.77703 | -75.07828 | 10003 ft | 333 kts | 49° |
| 2026-04-18 13:30 | 36.79192 | -75.05613 | 10003 ft | 333 kts | 49° |
| 2026-04-18 13:30 | 36.80631 | -75.03391 | 10003 ft | 333 kts | 50° |
| 2026-04-18 13:30 | 36.82068 | -75.01082 | 10003 ft | 333 kts | 52° |
| 2026-04-18 13:30 | 36.83455 | -74.98757 | 10003 ft | 333 kts | 53° |
| 2026-04-18 13:31 | 36.84799 | -74.96397 | 10003 ft | 334 kts | 54° |
| 2026-04-18 13:31 | 36.86101 | -74.93999 | 10003 ft | 334 kts | 55° |
| 2026-04-18 13:31 | 36.87356 | -74.91561 | 10003 ft | 334 kts | 57° |
| 2026-04-18 13:31 | 36.88604 | -74.89048 | 9754 ft | 341 kts | 56° |
| 2026-04-18 13:32 | 36.89883 | -74.86573 | 8147 ft | 342 kts | 56° |
| 2026-04-18 13:32 | 36.91187 | -74.84087 | 6565 ft | 342 kts | 56° |
| 2026-04-18 13:32 | 36.92467 | -74.81594 | 5078 ft | 339 kts | 58° |
| 2026-04-18 13:32 | 36.93693 | -74.79146 | 3917 ft | 326 kts | 56° |
| 2026-04-18 13:33 | 36.95399 | -74.77947 | 3337 ft | 286 kts | 338° |
| 2026-04-18 13:33 | 36.96809 | -74.79421 | 3181 ft | 256 kts | 307° |
| 2026-04-18 13:33 | 36.97252 | -74.81454 | 2300 ft | 260 kts | 249° |
| 2026-04-18 13:33 | 36.96506 | -74.83523 | 1808 ft | 249 kts | 246° |
| 2026-04-18 13:34 | 36.95782 | -74.85367 | 1495 ft | 213 kts | 234° |
| 2026-04-18 13:34 | 36.94756 | -74.86026 | 1226 ft | 143 kts | 176° |
| 2026-04-18 13:34 | 36.93889 | -74.85557 | 752 ft | 144 kts | 127° |
| 2026-04-18 13:34 | 36.93406 | -74.84473 | 907 ft | 161 kts | 104° |
| 2026-04-18 13:35 | 36.93374 | -74.83150 | 1307 ft | 152 kts | 65° |
| 2026-04-18 13:35 | 36.94023 | -74.82071 | 1002 ft | 179 kts | 45° |
| 2026-04-18 13:35 | 36.94786 | -74.81039 | 709 ft | 140 kts | 45° |
| 2026-04-18 13:35 | 36.95449 | -74.80159 | 457 ft | 148 kts | 44° |
| 2026-04-18 13:36 | 36.96174 | -74.79196 | 229 ft | 147 kts | 44° |
| 2026-04-18 13:36 | 36.96602 | -74.78608 | 0 ft | 122 kts | 0° |
| 2026-04-18 13:36 | 37.13495 | -74.50188 | 17129 ft | 316 kts | 185° |
| 2026-04-18 13:37 | 37.10933 | -74.50443 | 16574 ft | 419 kts | 185° |
| 2026-04-18 13:37 | 37.07715 | -74.50883 | 16170 ft | 512 kts | 186° |
| 2026-04-18 13:37 | 37.03919 | -74.50912 | 15757 ft | 592 kts | 173° |
| 2026-04-18 13:37 | 36.99770 | -74.49736 | 15334 ft | 628 kts | 160° |
| 2026-04-18 13:38 | 36.95834 | -74.47401 | 14882 ft | 590 kts | 147° |
| 2026-04-18 13:38 | 36.92775 | -74.44347 | 14433 ft | 557 kts | 133° |
| 2026-04-18 13:38 | 36.90476 | -74.40590 | 13985 ft | 535 kts | 119° |
| 2026-04-18 13:38 | 36.88641 | -74.36675 | 13555 ft | 520 kts | 124° |
| 2026-04-18 13:39 | 36.87491 | -74.34825 | 13317 ft | 514 kts | 132° |
| 2026-04-18 13:39 | 36.85480 | -74.32546 | 12971 ft | 506 kts | 144° |
| 2026-04-18 13:40 | 36.82439 | -74.30488 | 12523 ft | 497 kts | 160° |
| 2026-04-18 13:40 | 36.79094 | -74.29551 | 12072 ft | 490 kts | 176° |
| 2026-04-18 13:40 | 36.75720 | -74.29801 | 11622 ft | 483 kts | 193° |
| 2026-04-18 13:40 | 36.72585 | -74.31199 | 11187 ft | 477 kts | 209° |
| 2026-04-18 13:41 | 36.69930 | -74.33483 | 11068 ft | 444 kts | 221° |
| 2026-04-18 13:41 | 36.67852 | -74.36058 | 11001 ft | 400 kts | 230° |
| 2026-04-18 13:41 | 36.66209 | -74.38683 | 10991 ft | 372 kts | 236° |
| 2026-04-18 13:41 | 36.64838 | -74.41299 | 10995 ft | 359 kts | 240° |
| 2026-04-18 13:42 | 36.63588 | -74.43987 | 11000 ft | 354 kts | 242° |
| 2026-04-18 13:42 | 36.62429 | -74.46679 | 11001 ft | 351 kts | 244° |
| 2026-04-18 13:42 | 36.61321 | -74.49384 | 11002 ft | 350 kts | 244° |
| 2026-04-18 13:42 | 36.60245 | -74.52092 | 11002 ft | 349 kts | 245° |
| 2026-04-18 13:43 | 36.59197 | -74.54777 | 11003 ft | 348 kts | 245° |
| 2026-04-18 13:43 | 36.58315 | -74.57586 | 10998 ft | 344 kts | 261° |
| 2026-04-18 13:43 | 36.58155 | -74.60535 | 11009 ft | 341 kts | 274° |
| 2026-04-18 13:43 | 36.58378 | -74.63457 | 11006 ft | 340 kts | 279° |
| 2026-04-18 13:44 | 36.58761 | -74.66372 | 11004 ft | 341 kts | 282° |
| 2026-04-18 13:44 | 36.59208 | -74.69264 | 11004 ft | 341 kts | 283° |
| 2026-04-18 13:44 | 36.59684 | -74.72156 | 11008 ft | 342 kts | 283° |
| 2026-04-18 13:44 | 36.60177 | -74.75074 | 11005 ft | 344 kts | 283° |
| 2026-04-18 13:45 | 36.60672 | -74.77983 | 11003 ft | 343 kts | 283° |
| 2026-04-18 13:45 | 36.61168 | -74.80887 | 11003 ft | 343 kts | 283° |
| 2026-04-18 13:45 | 36.61664 | -74.83787 | 11003 ft | 342 kts | 283° |
| 2026-04-18 13:45 | 36.62158 | -74.86681 | 11003 ft | 342 kts | 283° |
| 2026-04-18 13:46 | 36.62652 | -74.89579 | 11003 ft | 342 kts | 283° |
| 2026-04-18 13:46 | 36.63144 | -74.92472 | 11003 ft | 342 kts | 283° |
| 2026-04-18 13:46 | 36.63636 | -74.95367 | 11003 ft | 342 kts | 283° |
| 2026-04-18 13:46 | 36.64127 | -74.98261 | 11003 ft | 342 kts | 283° |
| 2026-04-18 13:47 | 36.64618 | -75.01157 | 11003 ft | 342 kts | 283° |
| 2026-04-18 13:47 | 36.65108 | -75.04053 | 11003 ft | 342 kts | 283° |
| 2026-04-18 13:47 | 36.65596 | -75.06944 | 11003 ft | 342 kts | 283° |
| 2026-04-18 13:47 | 36.66078 | -75.09805 | 11003 ft | 342 kts | 283° |
| 2026-04-18 13:48 | 36.66572 | -75.12736 | 11003 ft | 342 kts | 283° |
| 2026-04-18 13:48 | 36.67053 | -75.15599 | 11003 ft | 342 kts | 283° |
| 2026-04-18 13:48 | 36.67545 | -75.18530 | 11003 ft | 342 kts | 283° |
| 2026-04-18 13:48 | 36.68023 | -75.21390 | 11003 ft | 342 kts | 283° |
| 2026-04-18 13:49 | 36.68514 | -75.24325 | 11003 ft | 342 kts | 283° |
| 2026-04-18 13:49 | 36.68998 | -75.27225 | 11003 ft | 342 kts | 283° |
| 2026-04-18 13:49 | 36.69481 | -75.30122 | 11003 ft | 342 kts | 283° |
| 2026-04-18 13:49 | 36.69957 | -75.32984 | 11003 ft | 342 kts | 283° |
| 2026-04-18 13:50 | 36.70438 | -75.35882 | 11003 ft | 342 kts | 283° |
| 2026-04-18 13:50 | 36.70918 | -75.38780 | 11003 ft | 342 kts | 283° |
| 2026-04-18 13:50 | 36.71398 | -75.41680 | 11003 ft | 342 kts | 283° |
| 2026-04-18 13:50 | 36.71877 | -75.44581 | 11003 ft | 342 kts | 283° |
| 2026-04-18 13:51 | 36.72360 | -75.47513 | 11003 ft | 342 kts | 283° |
| 2026-04-18 13:51 | 36.72833 | -75.50384 | 11003 ft | 342 kts | 283° |
| 2026-04-18 13:51 | 36.73309 | -75.53285 | 11003 ft | 342 kts | 283° |
| 2026-04-18 13:51 | 36.73791 | -75.56223 | 11003 ft | 342 kts | 283° |
| 2026-04-18 13:52 | 36.74260 | -75.59085 | 11003 ft | 342 kts | 283° |
| 2026-04-18 13:52 | 36.74734 | -75.61990 | 11003 ft | 342 kts | 283° |
| 2026-04-18 13:52 | 36.75208 | -75.64897 | 11003 ft | 342 kts | 283° |
| 2026-04-18 13:52 | 36.75680 | -75.67799 | 11003 ft | 342 kts | 283° |
| 2026-04-18 13:53 | 36.76153 | -75.70706 | 11003 ft | 342 kts | 283° |
| 2026-04-18 13:53 | 36.76629 | -75.73605 | 10843 ft | 344 kts | 287° |
| 2026-04-18 13:53 | 36.77808 | -75.76191 | 9893 ft | 342 kts | 312° |
| 2026-04-18 13:53 | 36.79329 | -75.78412 | 9486 ft | 329 kts | 311° |
| 2026-04-18 13:54 | 36.80836 | -75.80531 | 9289 ft | 326 kts | 314° |
| 2026-04-18 13:54 | 36.82389 | -75.82601 | 9097 ft | 327 kts | 314° |
| 2026-04-18 13:54 | 36.83936 | -75.84682 | 8917 ft | 327 kts | 313° |
| 2026-04-18 13:54 | 36.85509 | -75.86820 | 7830 ft | 340 kts | 314° |
| 2026-04-18 13:55 | 36.86434 | -75.88065 | 7074 ft | 329 kts | 314° |
| 2026-04-18 13:55 | 36.88027 | -75.90185 | 5875 ft | 335 kts | 314° |
| 2026-04-18 13:55 | 36.89422 | -75.92232 | 4631 ft | 281 kts | 303° |
| 2026-04-18 13:56 | 36.90152 | -75.94507 | 2873 ft | 276 kts | 278° |
| 2026-04-18 13:56 | 36.89752 | -75.96633 | 2065 ft | 243 kts | 235° |
| 2026-04-18 13:56 | 36.88569 | -75.97720 | 1551 ft | 185 kts | 196° |
| 2026-04-18 13:56 | 36.87478 | -75.98075 | 1138 ft | 146 kts | 195° |
| 2026-04-18 13:57 | 36.86473 | -75.98467 | 749 ft | 158 kts | 205° |
| 2026-04-18 13:57 | 36.85589 | -75.99297 | 606 ft | 163 kts | 225° |
| 2026-04-18 13:57 | 36.84759 | -76.00248 | 451 ft | 159 kts | 224° |
| 2026-04-18 13:57 | 36.83932 | -76.01188 | 271 ft | 163 kts | 224° |
| 2026-04-18 13:58 | 36.83079 | -76.02149 | 90 ft | 167 kts | 224° |
| 2026-04-18 13:58 | 36.82364 | -76.02959 | 31 ft | 78 kts | 222° |
| 2026-04-18 13:58 | 36.82188 | -76.03148 | 31 ft | 27 kts | 219° |
| 2026-04-18 13:58 | 36.82042 | -76.03313 | 31 ft | 28 kts | 221° |
| 2026-04-18 13:59 | 36.81902 | -76.03468 | 31 ft | 20 kts | 222° |
| 2026-04-18 13:59 | 36.81801 | -76.03502 | 31 ft | 20 kts | 140° |
| 2026-04-18 13:59 | 36.81685 | -76.03372 | 31 ft | 21 kts | 131° |
| 2026-04-18 13:59 | 36.81580 | -76.03381 | 31 ft | 17 kts | 222° |
| 2026-04-18 14:00 | 36.81571 | -76.03392 | 31 ft | 0 kts | 223° |